Portada
METAR-TAF:

METAR-TAF

Aeropuertos :

Volgogrado, Rusia

Aeropuerto Internacional de Volgogrado

latitud: 48-47N, longitud: 044-22E, altitud: 145 m

Observación

El informe se hizo hace 20 minutos, a las 04:00 UTC
Viento 14 kt del sureste
Temperatura 10°C
Humedad 57%
Presión 1028 hPa
Visibilidad 10 km o más
sin nubes por debajo de 1500 m y sin presencia de cumulonimbus.

METAR: URWW 280400Z 13007MPS CAVOK 10/02 Q1028 R24/010070 NOSIG

Hora: 07:20 (04:20 UTC)

Pronóstico

El informe se hizo hace 2 horas y 24 minutos, a las 01:56 UTC
Pronóstico válido del 28 a las 03 UTC al 28 a las 12 UTC
Viento 16 kt del este-sureste con ráfagas de 25 kt
Visibilidad 10 km o más
sin nubes por debajo de 1500 m y sin presencia de cumulonimbus.
Temporalmente
del 28 a las 03 UTC al 28 a las 12 UTC
Viento 19 kt del sureste con ráfagas de 31 kt

TAF: URWW 280156Z 2803/2812 11008G13MPS CAVOK TEMPO 2803/2812 14010G16MPS

Observaciones y pronósticos meteorológicos de más de 4000 aeropuertos (mensajes METAR y TAF).

Los puntos amarillos y rojos representan las estaciones disponibles.

Ponga el ratón en el punto deseado para ver el nombre de la estación.

Haga clic para ver las observaciones y los pronósticos meteorológicos.

Para cambiar el mapa : haga clic en los botones verdes con una cruz de color negro para hacer un zoom, en el botón verde con un guión para alejar o en las flechas verdes para mapas adyacentes.


METAR-TAF: